createdAt,value
2022-08-07T00:00:03.119Z,9.747406
2022-08-07T00:01:01.386Z,9.747449
2022-08-07T00:02:40.497Z,9.747510
2022-08-07T00:03:02.773Z,9.747360
2022-08-07T00:04:01.358Z,9.747473
2022-08-07T00:05:01.390Z,9.747613
2022-08-07T00:06:01.342Z,9.747531
2022-08-07T00:07:05.295Z,9.747530
2022-08-07T00:08:02.370Z,9.747551
2022-08-07T00:09:17.205Z,9.747424
2022-08-07T00:10:25.578Z,9.747383
2022-08-07T00:11:03.320Z,9.747403
2022-08-07T00:12:01.297Z,9.747445
2022-08-07T00:13:02.487Z,9.747477
2022-08-07T00:14:03.290Z,9.747555
2022-08-07T00:15:01.304Z,9.747460
2022-08-07T00:16:01.269Z,9.747404
2022-08-07T00:17:01.671Z,9.747409
2022-08-07T00:18:01.249Z,9.747528
2022-08-07T00:19:01.246Z,9.747510
2022-08-07T00:20:03.480Z,9.747416
2022-08-07T00:21:03.438Z,9.747396
2022-08-07T00:22:03.353Z,9.747508
2022-08-07T00:23:01.223Z,9.747532
2022-08-07T00:24:01.205Z,9.747463
2022-08-07T00:25:01.237Z,9.747375
2022-08-07T00:26:13.330Z,9.747450
2022-08-07T00:27:07.378Z,9.747523
2022-08-07T00:28:02.231Z,9.747372
2022-08-07T00:29:01.175Z,9.747363
2022-08-07T00:30:01.197Z,9.747479
2022-08-07T00:31:01.150Z,9.747543
2022-08-07T00:32:02.154Z,9.747451
2022-08-07T00:33:01.164Z,9.747473
2022-08-07T00:34:01.132Z,9.747472
2022-08-07T00:35:01.130Z,9.747467
2022-08-07T00:36:01.145Z,9.747418
2022-08-07T00:37:01.112Z,9.747478
2022-08-07T00:38:01.118Z,9.747504
2022-08-07T00:39:01.137Z,9.747427
2022-08-07T00:40:01.163Z,9.747455
2022-08-07T00:41:01.101Z,9.747454
2022-08-07T00:42:01.813Z,9.747499
2022-08-07T00:43:01.065Z,9.747518
2022-08-07T00:44:03.002Z,9.747476
2022-08-07T00:45:02.051Z,9.747499
2022-08-07T00:46:02.249Z,9.747465
2022-08-07T00:47:01.042Z,9.747524
2022-08-07T00:48:08.218Z,9.747442
2022-08-07T00:49:02.343Z,9.747471
2022-08-07T00:50:21.367Z,9.747416
2022-08-07T00:51:02.028Z,9.747451
2022-08-07T00:52:00.993Z,9.747371
2022-08-07T00:53:00.978Z,9.747477
2022-08-07T00:54:01.979Z,9.747500
2022-08-07T00:55:05.006Z,9.747498
2022-08-07T00:56:03.696Z,9.747512
2022-08-07T00:57:00.969Z,9.747473
2022-08-07T00:58:00.957Z,9.747469
2022-08-07T00:59:00.946Z,9.747437
2022-08-07T01:00:00.936Z,9.747470
2022-08-07T01:01:01.023Z,9.747463
2022-08-07T01:02:01.005Z,9.747480
2022-08-07T01:03:00.918Z,9.747366
2022-08-07T01:04:00.906Z,9.747559
2022-08-07T01:05:00.898Z,9.747503
2022-08-07T01:06:00.914Z,9.747142
2022-08-07T01:07:00.878Z,9.747444
2022-08-07T01:08:00.873Z,9.747346
2022-08-07T01:09:01.526Z,9.747425
2022-08-07T01:10:06.897Z,9.747466
2022-08-07T01:12:04.580Z,9.747692
2022-08-07T01:12:09.745Z,9.747544
2022-08-07T01:13:01.831Z,9.747461
2022-08-07T01:14:00.826Z,9.747400
2022-08-07T01:15:03.711Z,9.747396
2022-08-07T01:16:05.829Z,9.747448
2022-08-07T01:17:04.192Z,9.747439
2022-08-07T01:18:01.801Z,9.747437
2022-08-07T01:19:00.782Z,9.747431
2022-08-07T01:20:00.777Z,9.747428
2022-08-07T01:21:00.806Z,9.747478
2022-08-07T01:22:00.765Z,9.747420
2022-08-07T01:23:12.395Z,9.747448
2022-08-07T01:24:01.750Z,9.747458
2022-08-07T01:25:00.742Z,9.747432
2022-08-07T01:26:00.768Z,9.747388
2022-08-07T01:27:00.721Z,9.747328
2022-08-07T01:28:00.718Z,9.747430
2022-08-07T01:29:33.906Z,9.747461
2022-08-07T01:30:00.891Z,9.747448
2022-08-07T01:31:00.699Z,9.747427
2022-08-07T01:32:00.715Z,9.747434
2022-08-07T01:33:00.687Z,9.747402
2022-08-07T01:34:00.676Z,9.747412
2022-08-07T01:35:00.667Z,9.747426
2022-08-07T01:36:06.311Z,9.747403
2022-08-07T01:37:01.677Z,9.747282
2022-08-07T01:38:00.662Z,9.747554
2022-08-07T01:39:00.698Z,9.747537
2022-08-07T01:40:00.815Z,9.747521
2022-08-07T01:41:00.621Z,9.747432
2022-08-07T01:42:36.766Z,9.747501
2022-08-07T01:43:01.602Z,9.747398
2022-08-07T01:44:00.595Z,9.747373
2022-08-07T01:45:00.587Z,9.747412
2022-08-07T01:46:00.599Z,9.747547
2022-08-07T01:47:00.983Z,9.747392
2022-08-07T01:48:30.494Z,9.747467
2022-08-07T01:49:02.358Z,9.747486
2022-08-07T01:50:00.706Z,9.747416
2022-08-07T01:51:24.283Z,9.747428
2022-08-07T01:52:04.745Z,9.747392
2022-08-07T01:53:00.541Z,9.747495
2022-08-07T01:54:09.412Z,9.747461
2022-08-07T01:55:02.021Z,9.747433
2022-08-07T01:56:00.500Z,9.747366
2022-08-07T01:57:01.591Z,9.747234
2022-08-07T01:58:01.350Z,9.747486
2022-08-07T01:59:01.501Z,9.747298
2022-08-07T02:00:00.477Z,9.747345
2022-08-07T02:01:10.130Z,9.747391
2022-08-07T02:02:04.255Z,9.747371
2022-08-07T02:03:19.274Z,9.747450
2022-08-07T02:04:01.538Z,9.747429
2022-08-07T02:05:00.448Z,9.747457
2022-08-07T02:06:01.027Z,9.747325
2022-08-07T02:07:00.451Z,9.747219
2022-08-07T02:08:00.414Z,9.747390
2022-08-07T02:09:00.410Z,9.747383
2022-08-07T02:10:00.404Z,9.747473
2022-08-07T02:11:00.383Z,9.747396
2022-08-07T02:12:04.948Z,9.747464
2022-08-07T02:13:00.382Z,9.747477
2022-08-07T02:14:02.332Z,9.747391
2022-08-07T02:15:00.613Z,9.747454
2022-08-07T02:16:00.356Z,9.747373
2022-08-07T02:17:00.372Z,9.747370
2022-08-07T02:18:00.339Z,9.747458
2022-08-07T02:19:00.337Z,9.747420
2022-08-07T02:20:04.348Z,9.747420
2022-08-07T02:21:01.314Z,9.747462
2022-08-07T02:22:01.331Z,9.747548
2022-08-07T02:23:00.301Z,9.747416
2022-08-07T02:24:00.295Z,9.747408
2022-08-07T02:25:00.284Z,9.747428
2022-08-07T02:26:31.791Z,9.747424
2022-08-07T02:27:02.425Z,9.747443
2022-08-07T02:28:00.257Z,9.747455
2022-08-07T02:29:00.262Z,9.747464
2022-08-07T02:30:00.242Z,9.747439
2022-08-07T02:31:00.231Z,9.747455
2022-08-07T02:32:01.350Z,9.747448
2022-08-07T02:33:09.076Z,9.747416
2022-08-07T02:34:03.170Z,9.747363
2022-08-07T02:35:00.807Z,9.747416
2022-08-07T02:36:30.302Z,9.747414
2022-08-07T02:37:01.205Z,9.747379
2022-08-07T02:38:00.178Z,9.747465
2022-08-07T02:39:00.282Z,9.747413
2022-08-07T02:40:11.698Z,9.747511
2022-08-07T02:41:01.221Z,9.747490
2022-08-07T02:42:00.181Z,9.747457
2022-08-07T02:43:00.147Z,9.747539
2022-08-07T02:44:00.133Z,9.747501
2022-08-07T02:45:00.124Z,9.747375
2022-08-07T02:46:02.104Z,9.747410
2022-08-07T02:47:00.974Z,9.747468
2022-08-07T02:48:01.611Z,9.747416
2022-08-07T02:49:00.099Z,9.747462
2022-08-07T02:50:00.490Z,9.747399
2022-08-07T02:51:01.077Z,9.747311
2022-08-07T02:52:00.114Z,9.747367
2022-08-07T02:53:03.220Z,9.747459
2022-08-07T02:54:00.068Z,9.747484
2022-08-07T02:55:00.051Z,9.747430
2022-08-07T02:56:02.353Z,9.747529
2022-08-07T02:57:01.058Z,9.747484
2022-08-07T02:58:00.030Z,9.747392
2022-08-07T02:59:00.016Z,9.747398
2022-08-07T03:00:01.247Z,9.747463
2022-08-07T03:01:00.075Z,9.747500
2022-08-07T03:02:02.239Z,9.747477
2022-08-07T03:02:59.990Z,9.747492
2022-08-07T03:04:03.182Z,9.747407
2022-08-07T03:05:05.219Z,9.747510
2022-08-07T03:06:00.981Z,9.747367
2022-08-07T03:07:07.378Z,9.747313
2022-08-07T03:08:05.325Z,9.747394
2022-08-07T03:09:00.942Z,9.747355
2022-08-07T03:09:59.935Z,9.747362
2022-08-07T03:10:59.929Z,9.747378
2022-08-07T03:12:02.580Z,9.747370
2022-08-07T03:12:59.916Z,9.747286
2022-08-07T03:14:01.742Z,9.747385
2022-08-07T03:15:02.377Z,9.747409
2022-08-07T03:16:00.892Z,9.747334
2022-08-07T03:16:59.913Z,9.747321
2022-08-07T03:17:59.879Z,9.747391
2022-08-07T03:18:59.867Z,9.747286
2022-08-07T03:19:59.862Z,9.747115
2022-08-07T03:20:59.849Z,9.747160
2022-08-07T03:21:59.872Z,9.747159
2022-08-07T03:22:59.838Z,9.747109
2022-08-07T03:24:19.790Z,9.747167
2022-08-07T03:25:00.830Z,9.747005
2022-08-07T03:26:00.010Z,9.747017
2022-08-07T03:26:59.822Z,9.747154
2022-08-07T03:28:09.624Z,9.747260
2022-08-07T03:29:00.794Z,9.747363
2022-08-07T03:29:59.779Z,9.747380
2022-08-07T03:30:59.769Z,9.747010
2022-08-07T03:31:59.790Z,9.747252
2022-08-07T03:32:59.750Z,9.747256
2022-08-07T03:33:59.747Z,9.747249
2022-08-07T03:35:01.001Z,9.747473
2022-08-07T03:36:00.731Z,9.747446
2022-08-07T03:36:59.764Z,9.747237
2022-08-07T03:38:00.729Z,9.747407
2022-08-07T03:39:05.526Z,9.747342
2022-08-07T03:40:15.626Z,9.747248
2022-08-07T03:41:00.787Z,9.747291
2022-08-07T03:42:00.654Z,9.747268
2022-08-07T03:42:59.683Z,9.747272
2022-08-07T03:43:59.680Z,9.747313
2022-08-07T03:44:59.673Z,9.747340
2022-08-07T03:45:59.662Z,9.747451
2022-08-07T03:47:11.429Z,9.747276
2022-08-07T03:48:00.642Z,9.747293
2022-08-07T03:49:02.743Z,9.747300
2022-08-07T03:49:59.669Z,9.747408
2022-08-07T03:50:59.617Z,9.747358
2022-08-07T03:52:01.135Z,9.747459
2022-08-07T03:52:59.611Z,9.747419
2022-08-07T03:54:32.940Z,9.747364
2022-08-07T03:55:07.170Z,9.747405
2022-08-07T03:56:03.993Z,9.747399
2022-08-07T03:57:03.598Z,9.747541
2022-08-07T03:58:35.151Z,9.747504
2022-08-07T03:59:08.202Z,9.747360
2022-08-07T04:00:01.637Z,9.747450
2022-08-07T04:01:00.669Z,9.747493
2022-08-07T04:01:59.634Z,9.747484
2022-08-07T04:02:59.632Z,9.747434
2022-08-07T04:03:59.521Z,9.747408
2022-08-07T04:05:00.531Z,9.747415
2022-08-07T04:05:59.916Z,9.747576
2022-08-07T04:07:00.122Z,9.747495
2022-08-07T04:07:59.488Z,9.747481
2022-08-07T04:08:59.481Z,9.747473
2022-08-07T04:09:59.473Z,9.747550
2022-08-07T04:12:23.849Z,9.747527
2022-08-07T04:12:27.947Z,9.747522
2022-08-07T04:13:00.452Z,9.747434
2022-08-07T04:14:10.775Z,9.747414
2022-08-07T04:15:00.551Z,9.747437
2022-08-07T04:15:59.434Z,9.747394
2022-08-07T04:16:59.423Z,9.747442
2022-08-07T04:18:57.735Z,9.747451
2022-08-07T04:19:01.553Z,9.747523
2022-08-07T04:20:00.391Z,9.747521
2022-08-07T04:21:00.402Z,9.747521
2022-08-07T04:22:08.621Z,9.747350
2022-08-07T04:23:01.806Z,9.747386
2022-08-07T04:24:06.075Z,9.747470
2022-08-07T04:25:01.452Z,9.747386
2022-08-07T04:25:59.368Z,9.747327
2022-08-07T04:26:59.350Z,9.747469
2022-08-07T04:28:00.846Z,9.747375
2022-08-07T04:28:59.335Z,9.747416
2022-08-07T04:30:01.963Z,9.747425
2022-08-07T04:30:59.362Z,9.747439
2022-08-07T04:32:03.192Z,9.747347
2022-08-07T04:33:00.348Z,9.747392
2022-08-07T04:33:59.299Z,9.747388
2022-08-07T04:34:59.306Z,9.747421
2022-08-07T04:35:59.282Z,9.747479
2022-08-07T04:36:59.285Z,9.747492
2022-08-07T04:38:06.957Z,9.747490
2022-08-07T04:39:00.330Z,9.747514
2022-08-07T04:40:00.134Z,9.747472
2022-08-07T04:40:59.246Z,9.747435
2022-08-07T04:41:59.233Z,9.747422
2022-08-07T04:43:02.056Z,9.747426
2022-08-07T04:44:12.106Z,9.747460
2022-08-07T04:45:03.217Z,9.747525
2022-08-07T04:46:01.523Z,9.747370
2022-08-07T04:47:04.515Z,9.747495
2022-08-07T04:48:05.577Z,9.747414
2022-08-07T04:49:01.590Z,9.747492
2022-08-07T04:50:04.592Z,9.747448
2022-08-07T04:51:00.165Z,9.747519
2022-08-07T04:51:59.159Z,9.747484
2022-08-07T04:52:59.181Z,9.747581
2022-08-07T04:54:05.895Z,9.747474
2022-08-07T04:55:00.133Z,9.747445
2022-08-07T04:58:09.998Z,9.747447
2022-08-07T04:58:14.297Z,9.747438
2022-08-07T04:58:15.788Z,9.747425
2022-08-07T05:00:11.510Z,9.747592
2022-08-07T05:01:00.142Z,9.747511
2022-08-07T05:01:59.087Z,9.747403
2022-08-07T05:02:59.102Z,9.747467
2022-08-07T05:04:06.760Z,9.747529
2022-08-07T05:05:00.074Z,9.747473
2022-08-07T05:05:59.051Z,9.747499
2022-08-07T05:06:59.191Z,9.747477
2022-08-07T05:07:59.062Z,9.747461
2022-08-07T05:09:01.895Z,9.747518
2022-08-07T05:09:59.028Z,9.747433
2022-08-07T05:11:02.541Z,9.747401
2022-08-07T05:12:02.411Z,9.747514
2022-08-07T05:14:45.553Z,9.747391
2022-08-07T05:14:52.899Z,9.747315
2022-08-07T05:15:04.229Z,9.747360
2022-08-07T05:15:59.981Z,9.747507
2022-08-07T05:16:58.975Z,9.747332
2022-08-07T05:18:00.543Z,9.747365
2022-08-07T05:18:58.951Z,9.747390
2022-08-07T05:19:58.946Z,9.747458
2022-08-07T05:20:58.942Z,9.747567
2022-08-07T05:22:01.409Z,9.747503
2022-08-07T05:22:58.951Z,9.747496
2022-08-07T05:23:58.913Z,9.747412
2022-08-07T05:24:59.744Z,9.747364
2022-08-07T05:26:15.553Z,9.747343
2022-08-07T05:26:59.887Z,9.747326
2022-08-07T05:28:03.523Z,9.747474
2022-08-07T05:28:59.878Z,9.747519
2022-08-07T05:29:58.913Z,9.747509
2022-08-07T05:30:58.861Z,9.747490
2022-08-07T05:31:58.853Z,9.747470
2022-08-07T05:32:58.868Z,9.747516
2022-08-07T05:34:04.264Z,9.747545
2022-08-07T05:34:59.839Z,9.747458
2022-08-07T05:35:58.828Z,9.747493
2022-08-07T05:36:58.823Z,9.747600
2022-08-07T05:38:09.634Z,9.747616
2022-08-07T05:40:07.111Z,9.747509
2022-08-07T05:40:14.104Z,9.747494
2022-08-07T05:41:00.849Z,9.747579
2022-08-07T05:42:00.490Z,9.747655
2022-08-07T05:42:58.799Z,9.747678
2022-08-07T05:44:12.191Z,9.747651
2022-08-07T05:45:14.455Z,9.747731
2022-08-07T05:45:59.749Z,9.747656
2022-08-07T05:47:00.329Z,9.747663
2022-08-07T05:48:01.242Z,9.747562
2022-08-07T05:48:59.503Z,9.747599
2022-08-07T05:49:58.717Z,9.747716
2022-08-07T05:50:58.706Z,9.747617
2022-08-07T05:51:58.698Z,9.747568
2022-08-07T05:52:58.719Z,9.747616
2022-08-07T05:54:13.523Z,9.747559
2022-08-07T05:55:02.960Z,9.747480
2022-08-07T05:56:03.162Z,9.747501
2022-08-07T05:56:58.803Z,9.747593
2022-08-07T05:57:58.686Z,9.747563
2022-08-07T05:58:58.642Z,9.747606
2022-08-07T05:59:58.637Z,9.747602
2022-08-07T06:00:58.642Z,9.747583
2022-08-07T06:01:59.709Z,9.747463
2022-08-07T06:02:58.610Z,9.747492
2022-08-07T06:04:01.298Z,9.747666
2022-08-07T06:04:58.601Z,9.747665
2022-08-07T06:05:58.626Z,9.747587
2022-08-07T06:07:03.823Z,9.747492
2022-08-07T06:08:13.138Z,9.747442
2022-08-07T06:08:59.571Z,9.747553
2022-08-07T06:10:04.767Z,9.747577
2022-08-07T06:10:59.549Z,9.747531
2022-08-07T06:11:59.547Z,9.747540
2022-08-07T06:12:58.538Z,9.747510
2022-08-07T06:14:13.139Z,9.747538
2022-08-07T06:15:05.286Z,9.747558
2022-08-07T06:15:59.518Z,9.747564
2022-08-07T06:16:58.507Z,9.747569
2022-08-07T06:17:58.503Z,9.747552
2022-08-07T06:18:58.532Z,9.747567
2022-08-07T06:20:04.171Z,9.747578
2022-08-07T06:22:14.587Z,9.747598
2022-08-07T06:22:16.585Z,9.747609
2022-08-07T06:23:02.463Z,9.747609
2022-08-07T06:24:37.456Z,9.747571
2022-08-07T06:25:01.550Z,9.747527
2022-08-07T06:25:58.440Z,9.747501
2022-08-07T06:26:58.427Z,9.747554
2022-08-07T06:28:02.848Z,9.747492
2022-08-07T06:29:01.343Z,9.747486
2022-08-07T06:29:58.435Z,9.747629
2022-08-07T06:30:58.629Z,9.747507
2022-08-07T06:31:58.396Z,9.747583
2022-08-07T06:32:58.386Z,9.747499
2022-08-07T06:33:58.406Z,9.747500
2022-08-07T06:34:58.371Z,9.747514
2022-08-07T06:36:12.061Z,9.747409
2022-08-07T06:36:59.357Z,9.747409
2022-08-07T06:37:58.377Z,9.747464
2022-08-07T06:40:15.632Z,9.747482
2022-08-07T06:40:16.591Z,9.747402
2022-08-07T06:40:59.391Z,9.747445
2022-08-07T06:42:02.440Z,9.747496
2022-08-07T06:42:58.307Z,9.747473
2022-08-07T06:44:01.471Z,9.747467
2022-08-07T06:44:59.300Z,9.747492
2022-08-07T06:46:01.017Z,9.747513
2022-08-07T06:47:12.057Z,9.747374
2022-08-07T06:47:59.796Z,9.747456
2022-08-07T06:48:58.290Z,9.747483
2022-08-07T06:49:58.969Z,9.747398
2022-08-07T06:50:58.251Z,9.747448
2022-08-07T06:52:02.865Z,9.747424
2022-08-07T06:53:00.261Z,9.747448
2022-08-07T06:55:27.397Z,9.747468
2022-08-07T06:55:33.047Z,9.747463
2022-08-07T06:56:01.505Z,9.747402
2022-08-07T06:56:58.205Z,9.747519
2022-08-07T06:57:59.327Z,9.747462
2022-08-07T07:00:14.595Z,9.747509
2022-08-07T07:00:15.072Z,9.747481
2022-08-07T07:00:59.179Z,9.747481
2022-08-07T07:01:58.392Z,9.747510
2022-08-07T07:03:01.353Z,9.747465
2022-08-07T07:04:27.648Z,9.747413
2022-08-07T07:04:59.134Z,9.747388
2022-08-07T07:06:02.960Z,9.747455
2022-08-07T07:07:01.125Z,9.747474
2022-08-07T07:07:59.859Z,9.747461
2022-08-07T07:08:59.099Z,9.747418
2022-08-07T07:09:58.092Z,9.747442
2022-08-07T07:10:59.000Z,9.747419
2022-08-07T07:12:07.607Z,9.747450
2022-08-07T07:12:59.099Z,9.747447
2022-08-07T07:14:01.411Z,9.747446
2022-08-07T07:14:58.050Z,9.747404
2022-08-07T07:15:58.041Z,9.747406
2022-08-07T07:16:58.036Z,9.747374
2022-08-07T07:17:58.162Z,9.747401
2022-08-07T07:18:58.017Z,9.747406
2022-08-07T07:19:59.152Z,9.747427
2022-08-07T07:20:59.009Z,9.747380
2022-08-07T07:22:04.633Z,9.747482
2022-08-07T07:24:10.106Z,9.747391
2022-08-07T07:24:10.106Z,9.747393
2022-08-07T07:25:13.912Z,9.747428
2022-08-07T07:26:34.280Z,9.747387
2022-08-07T07:26:58.955Z,9.747372
2022-08-07T07:28:02.145Z,9.747323
2022-08-07T07:29:56.216Z,9.747324
2022-08-07T07:30:09.749Z,9.747398
2022-08-07T07:30:58.944Z,9.747416
2022-08-07T07:31:57.937Z,9.747356
2022-08-07T07:32:57.917Z,9.747354
2022-08-07T07:33:57.937Z,9.747393
2022-08-07T07:34:57.898Z,9.747352
2022-08-07T07:36:05.206Z,9.747356
2022-08-07T07:36:58.887Z,9.747431
2022-08-07T07:38:02.415Z,9.747430
2022-08-07T07:38:58.932Z,9.747428
2022-08-07T07:39:57.918Z,9.747379
2022-08-07T07:41:01.943Z,9.747330
2022-08-07T07:42:09.064Z,9.747302
2022-08-07T07:43:11.747Z,9.747269
2022-08-07T07:44:17.122Z,9.747233
2022-08-07T07:44:58.830Z,9.747298
2022-08-07T07:46:36.790Z,9.747361
2022-08-07T07:47:11.985Z,9.747215
2022-08-07T07:47:59.798Z,9.747317
2022-08-07T07:48:59.874Z,9.747321
2022-08-07T07:50:32.477Z,9.747359
2022-08-07T07:50:58.781Z,9.747286
2022-08-07T07:51:59.623Z,9.747349
2022-08-07T07:52:57.776Z,9.747391
2022-08-07T07:53:57.782Z,9.747372
2022-08-07T07:54:57.760Z,9.747242
2022-08-07T07:56:01.039Z,9.747271
2022-08-07T07:56:57.730Z,9.747305
2022-08-07T07:57:58.290Z,9.747269
2022-08-07T07:58:57.744Z,9.747370
2022-08-07T07:59:57.708Z,9.747398
2022-08-07T08:00:57.713Z,9.747341
2022-08-07T08:02:03.812Z,9.747366
2022-08-07T08:03:05.187Z,9.747415
2022-08-07T08:04:06.395Z,9.747235
2022-08-07T08:04:59.114Z,9.747335
2022-08-07T08:05:57.659Z,9.747228
2022-08-07T08:07:02.723Z,9.747231
2022-08-07T08:08:00.881Z,9.747348
2022-08-07T08:08:57.680Z,9.747213
2022-08-07T08:10:04.826Z,9.747285
2022-08-07T08:10:58.618Z,9.747044
2022-08-07T08:12:02.639Z,9.747017
2022-08-07T08:12:59.859Z,9.747282
2022-08-07T08:13:57.628Z,9.747315
2022-08-07T08:14:57.588Z,9.747404
2022-08-07T08:16:00.725Z,9.747214
2022-08-07T08:17:58.835Z,9.747300
2022-08-07T08:18:36.432Z,9.747281
2022-08-07T08:20:17.082Z,9.747409
2022-08-07T08:20:18.007Z,9.747230
2022-08-07T08:20:58.550Z,9.747276
2022-08-07T08:22:03.049Z,9.747295
2022-08-07T08:22:58.538Z,9.747298
2022-08-07T08:23:57.560Z,9.747402
2022-08-07T08:25:18.256Z,9.747337
2022-08-07T08:26:04.602Z,9.747263
2022-08-07T08:26:58.525Z,9.747336
2022-08-07T08:28:01.975Z,9.747260
2022-08-07T08:28:58.506Z,9.747299
2022-08-07T08:29:57.475Z,9.747351
2022-08-07T08:30:57.491Z,9.747227
2022-08-07T08:31:58.944Z,9.747199
2022-08-07T08:32:58.463Z,9.747307
2022-08-07T08:33:57.904Z,9.747315
2022-08-07T08:34:57.442Z,9.747192
2022-08-07T08:35:57.431Z,9.747082
2022-08-07T08:36:58.065Z,9.747196
2022-08-07T08:38:01.362Z,9.747276
2022-08-07T08:38:59.087Z,9.747215
2022-08-07T08:39:58.686Z,9.747339
2022-08-07T08:40:57.402Z,9.747346
2022-08-07T08:41:59.355Z,9.747364
2022-08-07T08:42:57.377Z,9.747360
2022-08-07T08:43:59.349Z,9.747312
2022-08-07T08:44:57.386Z,9.747252
2022-08-07T08:46:00.690Z,9.747308
2022-08-07T08:46:57.362Z,9.747258
2022-08-07T08:47:57.387Z,9.747352
2022-08-07T08:48:57.360Z,9.747365
2022-08-07T08:50:05.178Z,9.747406
2022-08-07T08:50:58.327Z,9.747343
2022-08-07T08:52:13.240Z,9.747364
2022-08-07T08:52:58.302Z,9.747416
2022-08-07T08:53:57.317Z,9.747509
2022-08-07T08:54:57.295Z,9.747377
2022-08-07T08:55:59.013Z,9.747310
2022-08-07T08:56:57.271Z,9.747306
2022-08-07T08:57:57.272Z,9.747244
2022-08-07T08:58:57.283Z,9.747132
2022-08-07T08:59:57.428Z,9.747315
2022-08-07T09:00:57.264Z,9.747325
2022-08-07T09:01:59.564Z,9.747301
2022-08-07T09:02:57.563Z,9.747342
2022-08-07T09:03:57.248Z,9.747386
2022-08-07T09:04:57.213Z,9.747306
2022-08-07T09:05:57.205Z,9.747326
2022-08-07T09:06:57.214Z,9.747355
2022-08-07T09:07:57.648Z,9.747336
2022-08-07T09:08:57.220Z,9.747263
2022-08-07T09:09:57.454Z,9.747234
2022-08-07T09:10:57.165Z,9.747409
2022-08-07T09:12:08.907Z,9.747373
2022-08-07T09:12:59.143Z,9.747330
2022-08-07T09:13:57.167Z,9.747401
2022-08-07T09:14:58.873Z,9.747500
2022-08-07T09:16:23.408Z,9.747418
2022-08-07T09:16:58.119Z,9.747407
2022-08-07T09:17:59.656Z,9.747420
2022-08-07T09:18:58.621Z,9.747416
2022-08-07T09:19:57.092Z,9.747458
2022-08-07T09:20:57.843Z,9.747411
2022-08-07T09:22:23.102Z,9.747395
2022-08-07T09:24:30.792Z,9.747416
2022-08-07T09:24:33.073Z,9.747384
2022-08-07T09:24:59.305Z,9.747343
2022-08-07T09:25:57.049Z,9.747418
2022-08-07T09:26:57.220Z,9.747446
2022-08-07T09:28:01.262Z,9.747490
2022-08-07T09:30:00.584Z,9.747484
2022-08-07T09:30:06.432Z,9.747404
2022-08-07T09:30:58.011Z,9.747231
2022-08-07T09:31:57.008Z,9.747265
2022-08-07T09:32:57.002Z,9.747313
2022-08-07T09:33:58.202Z,9.747318
2022-08-07T09:34:57.017Z,9.747418
2022-08-07T09:36:04.124Z,9.747429
2022-08-07T09:36:57.973Z,9.747515
2022-08-07T09:37:56.991Z,9.747461
2022-08-07T09:38:56.955Z,9.747520
2022-08-07T09:39:57.839Z,9.747531
2022-08-07T09:40:56.935Z,9.747400
2022-08-07T09:41:59.045Z,9.747499
2022-08-07T09:42:57.916Z,9.747352
2022-08-07T09:44:05.871Z,9.747355
2022-08-07T09:47:23.902Z,9.747374
2022-08-07T09:47:50.043Z,9.747396
2022-08-07T09:47:51.180Z,9.747117
2022-08-07T09:48:02.812Z,9.747208
2022-08-07T09:50:01.083Z,9.747357
2022-08-07T09:50:04.153Z,9.747318
2022-08-07T09:50:59.481Z,9.747386
2022-08-07T09:52:10.428Z,9.747387
2022-08-07T09:52:57.848Z,9.747365
2022-08-07T09:54:00.614Z,9.747385
2022-08-07T09:54:58.883Z,9.747345
2022-08-07T09:56:03.106Z,9.747413
2022-08-07T09:56:57.818Z,9.747416
2022-08-07T09:57:56.830Z,9.747430
2022-08-07T09:58:56.799Z,9.747369
2022-08-07T10:00:01.464Z,9.747328
2022-08-07T10:00:58.787Z,9.747362
2022-08-07T10:01:56.777Z,9.747311
2022-08-07T10:02:56.776Z,9.747394
2022-08-07T10:04:06.292Z,9.747341
2022-08-07T10:04:57.835Z,9.747262
2022-08-07T10:05:59.133Z,9.747268
2022-08-07T10:06:57.750Z,9.747289
2022-08-07T10:07:57.146Z,9.747326
2022-08-07T10:08:56.732Z,9.747337
2022-08-07T10:10:00.972Z,9.747303
2022-08-07T10:11:17.003Z,9.747443
2022-08-07T10:12:01.723Z,9.747375
2022-08-07T10:12:56.741Z,9.747337
2022-08-07T10:14:01.668Z,9.747344
2022-08-07T10:14:57.715Z,9.747365
2022-08-07T10:15:56.682Z,9.747345
2022-08-07T10:16:59.541Z,9.747387
2022-08-07T10:18:02.883Z,9.747340
2022-08-07T10:18:57.670Z,9.747360
2022-08-07T10:19:56.675Z,9.747368
2022-08-07T10:20:56.637Z,9.747289
2022-08-07T10:22:15.965Z,9.747368
2022-08-07T10:22:57.634Z,9.747326
2022-08-07T10:24:05.477Z,9.747446
2022-08-07T10:24:57.632Z,9.747437
2022-08-07T10:25:56.614Z,9.747505
2022-08-07T10:26:56.664Z,9.747411
2022-08-07T10:27:56.586Z,9.747483
2022-08-07T10:28:56.611Z,9.747434
2022-08-07T10:29:56.611Z,9.747408
2022-08-07T10:30:56.575Z,9.747418
2022-08-07T10:31:56.565Z,9.747357
2022-08-07T10:32:59.994Z,9.747416
2022-08-07T10:34:06.968Z,9.747405
2022-08-07T10:34:57.581Z,9.747322
2022-08-07T10:36:10.820Z,9.747442
2022-08-07T10:36:58.534Z,9.747511
2022-08-07T10:38:20.983Z,9.747518
2022-08-07T10:38:57.510Z,9.747406
2022-08-07T10:39:57.568Z,9.747478
2022-08-07T10:40:57.493Z,9.747441
2022-08-07T10:42:09.207Z,9.747392
2022-08-07T10:42:57.491Z,9.747472
2022-08-07T10:44:07.265Z,9.747393
2022-08-07T10:44:57.488Z,9.747391
2022-08-07T10:45:57.643Z,9.747389
2022-08-07T10:46:56.458Z,9.747395
2022-08-07T10:48:03.056Z,9.747344
2022-08-07T10:48:58.448Z,9.747382
2022-08-07T10:49:56.463Z,9.747294
2022-08-07T10:50:56.427Z,9.747346
2022-08-07T10:52:02.292Z,9.747372
2022-08-07T10:52:57.413Z,9.747383
2022-08-07T10:54:00.096Z,9.747387
2022-08-07T10:55:01.839Z,9.747350
2022-08-07T10:55:57.379Z,9.747317
2022-08-07T10:56:56.373Z,9.747302
2022-08-07T10:57:56.573Z,9.747343
2022-08-07T10:58:59.326Z,9.747351
2022-08-07T10:59:56.357Z,9.747348
2022-08-07T11:00:56.707Z,9.747355
2022-08-07T11:02:04.786Z,9.747328
2022-08-07T11:02:57.366Z,9.747337
2022-08-07T11:04:16.581Z,9.747476
2022-08-07T11:05:10.650Z,9.747437
2022-08-07T11:06:00.159Z,9.747525
2022-08-07T11:07:03.508Z,9.747492
2022-08-07T11:08:00.715Z,9.747421
2022-08-07T11:08:57.278Z,9.747431
2022-08-07T11:10:07.924Z,9.747314
2022-08-07T11:11:00.073Z,9.747339
2022-08-07T11:11:59.271Z,9.747361
2022-08-07T11:13:02.216Z,9.747355
2022-08-07T11:14:46.081Z,9.747383
2022-08-07T11:15:00.583Z,9.747341
2022-08-07T11:15:56.257Z,9.747421
2022-08-07T11:17:01.112Z,9.747329
2022-08-07T11:18:03.605Z,9.747289
2022-08-07T11:18:57.220Z,9.747341
2022-08-07T11:19:56.198Z,9.747367
2022-08-07T11:20:56.229Z,9.747430
2022-08-07T11:21:56.186Z,9.747398
2022-08-07T11:22:56.192Z,9.747418
2022-08-07T11:23:56.188Z,9.747467
2022-08-07T11:24:56.177Z,9.747412
2022-08-07T11:25:56.185Z,9.747339
2022-08-07T11:26:57.148Z,9.747362
2022-08-07T11:28:02.585Z,9.747378
2022-08-07T11:28:57.141Z,9.747327
2022-08-07T11:30:17.544Z,9.747459
2022-08-07T11:30:57.146Z,9.747455
2022-08-07T11:31:56.107Z,9.747373
2022-08-07T11:32:56.102Z,9.747352
2022-08-07T11:34:00.082Z,9.747354
2022-08-07T11:34:56.081Z,9.747348
2022-08-07T11:35:59.793Z,9.747411
2022-08-07T11:36:56.364Z,9.747301
2022-08-07T11:38:09.948Z,9.747302
2022-08-07T11:38:57.062Z,9.747226
2022-08-07T11:39:59.843Z,9.747255
2022-08-07T11:40:57.037Z,9.747354
2022-08-07T11:42:01.646Z,9.747301
2022-08-07T11:42:57.018Z,9.747332
2022-08-07T11:44:11.811Z,9.747435
2022-08-07T11:44:58.005Z,9.747421